Latest Weather Observations for Cape Moreton

IDQ60901

Issued at 2:35 pm EST Wednesday 16 April 2014 (issued every 10 minutes, with the page automatically refreshed every 10 minutes)

About weather observations | Map of Brisbane area stations | Latest observations for Brisbane area | Other Formats
Station Details ID: 040043 Name: CAPE MORETON LIGHTHOUSE Lat: -27.03 Lon: 153.47 Height: 99.9 m
Data from the previous 72 hours. | See also: Recent months at Cape Moreton
Date/Time
EST
Tmp

°C
App
Tmp
°C
Dew
Point
°C
Rel
Hum
%
Delta-T

°C
Wind Press
QNH
hPa
Press
MSL
hPa
Rain
since
9 am
mm
Dir
 
Spd
km/h
Gust
km/h
Spd
kts
Gust
kts
16/02:30pm 23.2 20.8 14.5 58 5.2 SE 20 24 11 13 1014.3 - -
16/02:00pm 23.2 20.6 15.0 60 4.9 SE 22 26 12 14 1014.4 - -
16/01:30pm 23.8 21.7 15.3 59 5.1 SE 20 26 11 14 1014.5 - -
16/01:00pm 23.9 21.6 15.7 60 5.0 SSE 22 28 12 15 1014.7 - -
16/12:30pm 23.5 20.9 14.8 58 5.2 SE 22 28 12 15 1015.0 - -
16/12:00pm 23.4 20.4 14.9 59 5.1 SSE 24 30 13 16 1015.4 1014.9 -
16/11:30am 23.2 21.2 15.0 60 4.9 S 19 30 10 16 1015.9 - -
16/11:00am 22.8 20.0 14.4 59 5.0 S 22 30 12 16 1016.4 - -
16/10:30am 22.8 20.4 14.4 59 5.0 S 20 30 11 16 1016.6 - -
16/10:00am 22.4 19.7 13.5 57 5.2 S 20 32 11 17 1016.8 - -
16/09:30am 21.9 18.8 13.5 59 4.9 S 22 33 12 18 1016.9 - -
16/09:00am 22.0 19.7 14.6 63 4.4 S 20 30 11 16 1016.9 1016.5 -
16/08:30am 21.3 18.3 13.7 62 4.4 S 22 33 12 18 1016.9 - -
16/08:00am 20.7 18.4 14.1 66 3.8 SW 19 24 10 13 1016.9 - -
16/07:30am 19.8 17.7 13.5 67 3.6 SSW 17 24 9 13 1016.4 - -
16/07:00am 18.4 16.3 13.5 73 2.8 SW 17 22 9 12 1016.0 - -
16/06:30am 18.1 15.3 13.2 73 2.8 SSW 20 28 11 15 1015.6 - -
16/06:00am 18.5 14.9 12.9 70 3.2 SSW 24 32 13 17 1015.1 1014.6 -
16/05:30am 18.1 14.5 13.2 73 2.8 SW 24 32 13 17 1015.0 - -
16/05:00am 18.0 14.4 13.1 73 2.8 SW 24 32 13 17 1014.9 - -
16/04:30am 18.1 14.6 13.4 74 2.7 SW 24 30 13 16 1014.8 - -
16/04:00am 18.1 14.4 13.8 76 2.5 SW 26 32 14 17 1014.5 - -
16/03:30am 18.2 14.9 14.1 77 2.4 SW 24 30 13 16 1014.6 - -
16/03:00am 18.3 15.2 14.4 78 2.3 SW 24 30 13 16 1014.6 1014.1 -
16/02:30am 18.1 15.3 14.4 79 2.1 SW 22 28 12 15 1014.6 - -
16/02:00am 18.3 15.6 14.6 79 2.1 SW 22 30 12 16 1014.7 - -
16/01:30am 18.5 15.7 14.2 76 2.5 SW 22 30 12 16 1015.0 - -
16/01:00am 18.6 16.1 14.1 75 2.6 SW 20 28 11 15 1015.2 - -
16/12:30am 18.8 16.5 14.1 74 2.7 SW 19 24 10 13 1015.3 - -
16/12:00am 19.0 16.3 14.5 75 2.6 SW 22 28 12 15 1015.5 1015.0 -
 
Date/Time
EST
Tmp

°C
App
Tmp
°C
Dew
Point
°C
Rel
Hum
%
Delta-T

°C
Wind Press
QNH
hPa
Press
MSL
hPa
Rain
since
9 am
mm
Dir
 
Spd
km/h
Gust
km/h
Spd
kts
Gust
kts
15/11:30pm 19.0 16.2 14.3 74 2.7 SW 22 30 12 16 1015.7 - -
15/11:00pm 19.3 15.8 14.6 74 2.7 SSW 26 35 14 19 1015.7 - -
15/10:30pm 19.6 16.7 15.0 75 2.7 SSW 24 33 13 18 1015.7 - -
15/10:00pm 20.3 16.5 15.7 75 2.7 S 30 39 16 21 1015.7 - -
15/09:30pm 20.5 15.0 15.7 74 2.9 S 39 50 21 27 1015.4 - -
15/09:00pm 20.5 15.7 15.7 74 2.9 S 35 50 19 27 1015.8 1015.3 -
15/08:30pm 20.7 15.6 15.9 74 2.9 S 37 50 20 27 1015.8 - -
15/08:22pm 20.9 15.2 16.3 75 2.8 S 41 59 22 32 1015.8 - -
15/08:00pm 21.4 15.6 16.1 72 3.2 S 41 54 22 29 1015.7 - -
15/07:30pm 21.3 13.7 15.8 71 3.3 SSE 50 61 27 33 1015.2 - -
15/07:00pm 21.2 12.8 15.7 71 3.3 SSE 54 67 29 36 1014.8 - -
15/06:30pm 21.4 13.1 15.9 71 3.3 SSE 54 63 29 34 1014.7 - -
15/06:00pm 21.4 14.4 16.4 73 3.0 SSE 48 61 26 33 1014.5 1014.0 -
15/05:30pm 21.4 14.7 16.1 72 3.2 S 46 59 25 32 1014.3 - -
15/05:16pm 21.7 14.9 16.9 74 2.9 S 48 67 26 36 1014.0 - -
15/05:00pm 21.9 15.2 16.2 70 3.5 SSE 46 59 25 32 1014.0 - -
15/04:31pm 22.2 17.0 16.5 70 3.5 S 39 57 21 31 1013.7 - -
15/04:30pm 22.2 17.1 16.7 71 3.4 S 39 54 21 29 1013.9 - -
15/04:22pm 22.1 16.8 16.4 70 3.5 S 39 57 21 31 1013.9 - -
15/04:00pm 22.1 16.3 15.9 68 3.7 S 41 56 22 30 1013.7 - -
15/03:30pm 22.1 16.3 15.9 68 3.7 S 41 56 22 30 1013.7 - -
15/03:00pm 21.9 15.5 16.0 69 3.6 S 44 57 24 31 1013.7 1013.2 -
15/02:34pm 21.8 15.0 15.9 69 3.6 S 46 65 25 35 1013.4 - -
15/02:30pm 21.9 14.9 16.2 70 3.5 S 48 65 26 35 1013.3 - -
15/02:00pm 22.1 14.9 15.9 68 3.7 S 48 69 26 37 1013.1 - -
15/01:36pm 22.4 15.8 16.4 69 3.7 S 46 65 25 35 1013.1 - -
15/01:30pm 22.4 15.1 16.4 69 3.7 S 50 65 27 35 1013.1 - -
15/01:01pm 22.6 15.7 15.7 65 4.2 S 46 65 25 35 1013.3 - -
15/01:00pm 22.8 16.7 16.6 68 3.8 S 44 61 24 33 1013.5 - -
15/12:56pm 22.9 17.2 17.1 70 3.6 S 43 61 23 33 1013.7 - -
15/12:30pm 22.9 16.8 16.7 68 3.8 S 44 59 24 32 1014.2 - -
15/12:00pm 22.8 17.0 17.5 72 3.3 S 44 57 24 31 1014.5 1014.0 -
15/11:42am 22.7 16.9 16.9 70 3.6 S 43 61 23 33 1014.6 - -
15/11:30am 22.8 17.1 17.3 71 3.4 S 43 56 23 30 1014.7 - -
15/11:00am 22.4 17.1 17.3 73 3.2 S 41 63 22 34 1015.0 - -
15/10:52am 22.4 16.4 16.9 71 3.4 S 44 63 24 34 1015.0 - -
15/10:30am 22.4 16.7 17.3 73 3.2 S 43 57 23 31 1015.2 - -
15/10:00am 22.7 17.3 18.0 75 2.9 S 43 61 23 33 1015.4 - -
15/09:30am 21.7 15.9 17.3 76 2.7 S 44 57 24 31 1015.4 - -
15/09:00am 22.0 16.5 17.6 76 2.7 S 43 59 23 32 1015.6 1015.1 -
15/08:30am 21.3 16.0 17.3 78 2.5 S 41 57 22 31 1015.4 - -
15/08:00am 21.2 17.5 17.4 79 2.3 S 33 52 18 28 1015.3 - -
15/07:54am 20.8 16.3 17.4 81 2.1 S 37 56 20 30 1015.2 - -
15/07:30am 20.9 17.4 17.5 81 2.1 SSW 32 43 17 23 1014.9 - -
15/07:25am 20.3 16.4 16.5 79 2.3 SSW 32 54 17 29 1015.0 - -
15/07:03am 22.0 17.5 18.2 79 2.4 S 39 57 21 31 1014.5 - -
15/07:00am 21.8 17.1 17.8 78 2.5 S 39 56 21 30 1014.4 - -
15/06:31am 21.6 16.8 17.6 78 2.5 S 39 74 21 40 1014.3 - -
15/06:30am 21.8 13.2 17.6 77 2.6 SSE 59 74 32 40 1014.2 - -
15/06:11am 22.0 12.8 16.1 69 3.6 SSE 59 74 32 40 1013.4 - -
15/06:06am 21.9 16.8 17.7 77 2.6 S 41 74 22 40 1013.9 - -
15/06:00am 22.3 12.2 16.6 70 3.5 SSE 65 74 35 40 1013.1 1012.7 -
15/05:30am 22.2 11.3 15.5 66 4.0 SSE 67 82 36 44 1012.7 - -
15/05:00am 22.1 11.8 16.1 69 3.6 SSE 65 80 35 43 1012.1 - -
15/04:30am 22.2 11.7 16.5 70 3.5 SSE 67 76 36 41 1011.9 - -
15/04:00am 22.2 11.4 16.7 71 3.4 SSE 69 80 37 43 1011.5 - -
15/03:30am 22.1 11.7 16.8 72 3.2 SE 67 80 36 43 1011.5 - -
15/03:00am 22.1 10.7 15.7 67 3.9 SSE 70 85 38 46 1011.2 1010.8 -
15/02:30am 22.2 11.4 16.7 71 3.4 SSE 69 82 37 44 1011.3 - -
15/02:00am 22.3 10.7 16.3 69 3.7 SSE 72 83 39 45 1011.3 - -
15/01:30am 22.1 11.1 16.8 72 3.2 SSE 70 82 38 44 1011.4 - -
15/01:00am 22.2 11.4 17.3 74 3.0 SSE 70 82 38 44 1011.5 - -
15/12:30am 22.2 10.3 16.5 70 3.5 SSE 74 83 40 45 1011.5 - -
15/12:00am 22.4 11.9 17.5 74 3.0 SE 69 83 37 45 1011.9 1011.5 -
 
Date/Time
EST
Tmp

°C
App
Tmp
°C
Dew
Point
°C
Rel
Hum
%
Delta-T

°C
Wind Press
QNH
hPa
Press
MSL
hPa
Rain
since
9 am
mm
Dir
 
Spd
km/h
Gust
km/h
Spd
kts
Gust
kts
14/11:30pm 22.3 10.9 16.8 71 3.4 SE 72 87 39 47 1011.9 - -
14/11:00pm 22.3 11.2 16.6 70 3.5 SE 70 85 38 46 1012.3 - -
14/10:30pm 22.4 10.4 16.2 68 3.8 SE 74 83 40 45 1012.2 - -
14/10:00pm 22.4 10.9 16.4 69 3.7 SE 72 87 39 47 1012.5 - -
14/09:30pm 22.4 10.8 16.2 68 3.8 SE 72 87 39 47 1012.6 - -
14/09:00pm 22.4 10.8 16.2 68 3.8 SE 72 85 39 46 1012.6 1012.2 -
14/08:30pm 22.4 10.4 16.2 68 3.8 SE 74 85 40 46 1012.1 - -
14/08:00pm 22.4 10.1 16.4 69 3.7 SE 76 91 41 49 1012.0 - -
14/07:30pm 22.5 10.9 16.3 68 3.8 SE 72 87 39 47 1011.5 - -
14/07:00pm 22.4 10.4 16.2 68 3.8 SE 74 85 40 46 1011.1 - -
14/06:30pm 22.4 11.0 16.7 70 3.5 SE 72 85 39 46 1010.7 - -
14/06:00pm 22.4 10.9 16.4 69 3.7 SE 72 87 39 47 1010.1 1009.7 -
14/05:30pm 22.5 11.8 17.4 73 3.2 SE 70 82 38 44 1010.1 - -
14/05:00pm 22.5 11.8 17.6 74 3.0 SE 70 83 38 45 1009.9 - -
14/04:30pm 22.7 12.2 18.0 75 2.9 SE 70 80 38 43 1009.3 - -
14/04:00pm 22.8 12.3 18.8 78 2.5 SE 72 85 39 46 1009.1 - -
14/03:30pm 22.6 12.4 18.6 78 2.5 SE 70 83 38 45 1008.8 - -
14/03:00pm 22.7 12.4 18.5 77 2.7 SE 70 78 38 42 1009.0 1008.6 -
14/02:30pm 22.8 12.6 18.3 76 2.8 SE 69 78 37 42 1009.1 - -
14/02:00pm 22.6 13.5 19.0 80 2.3 SE 65 80 35 43 1009.5 - -
14/01:30pm 22.1 13.8 20.0 88 1.4 ESE 63 72 34 39 1009.5 - -
14/01:00pm 21.9 14.6 19.5 86 1.5 ESE 57 69 31 37 1009.8 - -
14/12:34pm 21.1 13.3 18.5 85 1.6 ESE 57 76 31 41 1010.1 - -
14/12:30pm 21.4 13.6 18.6 84 1.8 ESE 57 70 31 38 1010.4 - -
14/12:13pm 21.3 14.0 19.6 90 1.1 ESE 57 80 31 43 1010.5 - -
14/12:00pm 20.3 11.6 19.1 93 0.8 ESE 63 78 34 42 1010.8 1010.4 -
14/11:53am 20.8 14.0 19.5 92 0.8 ESE 54 78 29 42 1011.0 - -
14/11:30am 20.2 11.7 19.5 96 0.4 ESE 63 76 34 41 1011.5 - -
14/11:00am 19.4 10.8 18.4 94 0.6 ESE 61 82 33 44 1012.3 - -
14/10:58am 19.8 11.0 18.8 94 0.6 ESE 63 82 34 44 1012.2 - -
14/10:43am 20.4 10.2 18.3 88 1.3 ESE 69 80 37 43 1011.6 - -
14/10:34am 22.0 17.0 20.1 89 1.2 ESE 46 65 25 35 1012.1 - -
14/10:30am 21.8 17.2 20.1 90 1.1 ESE 44 54 24 29 1012.3 - -
14/10:00am 20.8 12.7 19.6 93 0.8 ESE 61 76 33 41 1012.2 - -
14/09:47am 20.8 11.1 19.3 91 1.0 ESE 69 76 37 41 1012.0 - -
14/09:45am 21.7 16.8 20.2 91 1.0 E 46 74 25 40 1012.4 - -
14/09:30am 21.0 14.8 18.2 84 1.7 ESE 48 61 26 33 1012.6 - -
14/09:00am 20.8 13.2 18.9 89 1.2 ESE 57 67 31 36 1012.4 1012.0 -
14/08:30am 20.7 13.1 18.5 87 1.4 ESE 56 67 30 36 1012.3 - -
14/08:00am 21.6 13.7 19.2 86 1.5 ESE 59 70 32 38 1011.6 - -
14/07:51am 21.6 13.8 19.3 87 1.5 ESE 59 78 32 42 1011.8 - -
14/07:30am 20.6 12.9 19.6 94 0.6 ESE 59 70 32 38 1011.6 - -
14/07:00am 19.7 11.9 18.5 93 0.7 ESE 57 72 31 39 1011.7 - -
14/06:30am 20.1 12.2 19.1 94 0.6 ESE 59 85 32 46 1011.3 - -
14/06:26am 20.7 14.3 19.5 93 0.8 ESE 52 74 28 40 1011.2 - -
14/06:00am 22.0 14.8 19.5 86 1.6 ESE 56 65 30 35 1011.3 1010.9 -
14/05:30am 21.5 14.1 19.4 88 1.3 ESE 57 69 31 37 1011.2 - -
14/05:00am 22.4 14.9 19.2 82 2.0 ESE 57 65 31 35 1010.9 - -
14/04:30am 22.3 14.4 18.3 78 2.5 SE 57 65 31 35 1010.5 - -
14/04:00am 21.9 15.0 19.3 85 1.7 SE 54 61 29 33 1010.7 - -
14/03:35am 21.3 13.7 19.8 91 1.0 SE 59 67 32 36 1010.4 - -
14/03:31am 21.3 17.2 19.9 92 0.9 SE 41 61 22 33 1010.6 - -
14/03:30am 20.9 16.6 19.6 92 0.8 SSE 41 57 22 31 1010.7 - -
14/03:00am 21.2 16.8 20.2 94 0.6 SE 43 54 23 29 1011.0 1010.6 -
14/02:30am 21.9 15.6 20.4 91 1.0 ESE 54 61 29 33 1010.9 - -
14/02:00am 21.6 16.1 20.6 94 0.6 ESE 50 57 27 31 1011.3 - -
14/01:30am 21.5 15.7 20.8 96 0.5 ESE 52 59 28 32 1011.6 - -
14/01:00am 21.8 19.0 21.1 96 0.5 ESE 37 44 20 24 1012.5 - -
14/12:30am 20.6 16.4 19.8 95 0.5 ESE 41 48 22 26 1012.7 - -
14/12:00am 21.6 17.7 20.4 93 0.8 ESE 41 46 22 25 1012.9 1012.5 -
 
Date/Time
EST
Tmp

°C
App
Tmp
°C
Dew
Point
°C
Rel
Hum
%
Delta-T

°C
Wind Press
QNH
hPa
Press
MSL
hPa
Rain
since
9 am
mm
Dir
 
Spd
km/h
Gust
km/h
Spd
kts
Gust
kts
13/11:30pm 22.3 20.5 20.4 89 1.2 ESE 30 35 16 19 1013.6 - -
13/11:00pm 22.8 20.5 20.5 87 1.5 ESE 33 39 18 21 1013.7 - -
13/10:30pm 22.7 20.1 20.6 88 1.4 ESE 35 41 19 22 1014.0 - -
13/10:00pm 22.5 19.8 20.4 88 1.4 ESE 35 41 19 22 1013.9 - -
13/09:30pm 22.5 20.4 21.0 91 1.0 ESE 33 39 18 21 1014.4 - -
13/09:00pm 22.2 18.7 20.5 90 1.1 ESE 39 44 21 24 1013.9 1013.4 -
13/08:30pm 21.9 17.8 20.0 89 1.2 ESE 41 46 22 25 1013.7 - -
13/08:00pm 22.0 18.2 20.5 91 1.0 ESE 41 48 22 26 1013.4 - -
13/07:30pm 22.1 18.7 20.7 92 0.9 ESE 39 43 21 23 1013.7 - -
13/07:00pm 22.0 19.0 20.6 92 0.9 ESE 37 44 20 24 1013.4 - -
13/06:30pm 22.4 19.6 21.0 92 0.9 ESE 37 44 20 24 1013.3 - -
13/06:00pm 22.2 18.5 20.7 91 1.0 ESE 41 48 22 26 1012.7 1012.3 -
13/05:30pm 21.9 17.7 20.5 92 0.9 ESE 43 48 23 26 1012.5 - -
13/05:00pm 22.2 18.1 20.8 92 0.9 ESE 43 48 23 26 1012.6 - -
13/04:30pm 22.1 18.2 20.4 90 1.1 ESE 41 46 22 25 1012.2 - -
13/04:00pm 22.3 18.4 20.4 89 1.2 ESE 41 44 22 24 1012.1 - -
13/03:30pm 22.2 17.8 20.1 88 1.4 ESE 43 50 23 27 1011.9 - -
13/03:00pm 22.7 18.2 20.2 86 1.6 ESE 44 50 24 27 1011.8 1011.4 -

Latest Capital City Observations: Canberra | Sydney | Melbourne | Brisbane | Adelaide | Perth | Hobart | Darwin

Other Formats:

Comma delimited format used in spreadsheet applications
http://www.bom.gov.au/fwo/IDQ60901/IDQ60901.94594.axf

JavaScript Object Notation format (JSON) in row-major order
http://www.bom.gov.au/fwo/IDQ60901/IDQ60901.94594.json